Time;durP1;ratioP1;P1;durP2;ratioP2;P2;SDS_P1;SDS_P2;PMS_P1;PMS_P2;Temp;Humidity;BMP_temperature;BMP_pressure;BME280_temperature;BME280_humidity;BME280_pressure;Samples;Min_cycle;Max_cycle;Signal;HPM_P1;HPM_P2
2022/09/30 00:02:15;;;;;;;17.75;13.60;;;;;;;7.67;100.00;98884.59;5092245;28;20481;-77
2022/09/30 00:04:40;;;;;;;16.52;13.95;;;;;;;7.66;100.00;98884.63;5092053;28;20099;-77
2022/09/30 00:07:05;;;;;;;18.05;14.40;;;;;;;7.65;100.00;98885.56;5091908;28;20047;-77
2022/09/30 00:09:31;;;;;;;20.02;14.60;;;;;;;7.61;100.00;98895.22;5091913;28;20452;-77
2022/09/30 00:11:56;;;;;;;18.05;14.98;;;;;;;7.58;100.00;98892.75;5092105;28;20035;-77
2022/09/30 00:14:23;;;;;;;17.13;13.73;;;;;;;7.49;100.00;98877.66;5092262;28;20142;-77
2022/09/30 00:16:49;;;;;;;15.52;13.38;;;;;;;7.48;100.00;98884.59;5091967;28;20080;-77
2022/09/30 00:19:14;;;;;;;18.40;14.63;;;;;;;7.49;100.00;98893.19;5091879;28;20103;-77
2022/09/30 00:21:40;;;;;;;15.35;13.18;;;;;;;7.35;100.00;98880.06;5091849;28;20028;-77
2022/09/30 00:24:06;;;;;;;17.30;13.30;;;;;;;7.32;100.00;98880.19;5092059;28;20111;-76
2022/09/30 00:26:33;;;;;;;17.25;13.43;;;;;;;7.20;100.00;98873.81;5091878;28;20363;-77
2022/09/30 00:28:59;;;;;;;16.45;13.73;;;;;;;7.27;100.00;98895.94;5092049;28;20020;-77
2022/09/30 00:31:31;;;;;;;17.67;13.55;;;;;;;7.16;100.00;98886.06;5092049;28;20020;-77
2022/09/30 00:34:06;;;;;;;16.45;14.27;;;;;;;7.13;100.00;98885.38;5092038;28;20478;-77
2022/09/30 00:36:53;;;;;;;16.88;14.35;;;;;;;7.13;100.00;98898.31;5091753;28;20405;-77
2022/09/30 00:39:26;;;;;;;20.63;15.73;;;;;;;6.99;100.00;98897.19;5092166;28;20016;-77
2022/09/30 00:41:56;;;;;;;18.88;15.75;;;;;;;6.99;100.00;98904.06;5091692;28;20420;-77
2022/09/30 00:44:51;;;;;;;17.70;15.27;;;;;;;6.99;100.00;98914.44;5091840;28;20518;-77
2022/09/30 00:47:31;;;;;;;19.23;14.90;;;;;;;6.94;100.00;98917.22;5091923;28;20020;-77
2022/09/30 00:50:03;;;;;;;16.98;14.75;;;;;;;6.90;100.00;98927.78;5091830;28;20059;-77
2022/09/30 00:52:30;;;;;;;21.10;16.25;;;;;;;6.82;100.00;98922.09;5091762;28;20036;-77
2022/09/30 00:54:58;;;;;;;18.90;15.45;;;;;;;6.81;100.00;98918.66;5091798;28;20027;-77
2022/09/30 00:57:24;;;;;;;22.00;16.17;;;;;;;6.84;100.00;98928.91;5091715;28;20032;-77
2022/09/30 00:59:50;;;;;;;17.30;15.20;;;;;;;6.83;100.00;98934.16;5091642;28;20736;-77
2022/09/30 01:02:16;;;;;;;21.95;16.45;;;;;;;6.81;100.00;98931.59;5091811;28;20034;-77
2022/09/30 01:04:43;;;;;;;20.23;16.33;;;;;;;6.59;100.00;98902.38;5091439;28;20023;-77
2022/09/30 01:07:09;;;;;;;19.95;16.00;;;;;;;6.77;100.00;98929.22;5091388;28;20036;-77
2022/09/30 01:09:38;;;;;;;19.10;16.92;;;;;;;6.72;100.00;98921.66;5091418;28;20062;-77
2022/09/30 01:12:07;;;;;;;19.90;16.77;;;;;;;6.72;100.00;98917.31;5091564;28;20027;-77
2022/09/30 01:14:34;;;;;;;24.10;18.60;;;;;;;6.73;100.00;98920.75;5091459;28;20023;-77
2022/09/30 01:17:38;;;;;;;23.55;17.30;;;;;;;6.81;100.00;98941.13;5091470;28;20513;-77
2022/09/30 01:20:39;;;;;;;33.75;20.40;;;;;;;6.63;100.00;98912.53;5091467;28;20097;-77
2022/09/30 01:23:34;;;;;;;20.60;17.08;;;;;;;6.71;100.00;98931.16;5091694;28;20012;-77
2022/09/30 01:26:06;;;;;;;26.95;18.20;;;;;;;6.71;100.00;98935.50;5009143;28;20505;-77
2022/09/30 01:28:46;;;;;;;25.67;18.65;;;;;;;6.68;100.00;98935.63;5009078;28;20134;-77
2022/09/30 01:31:40;;;;;;;24.75;18.33;;;;;;;6.62;100.00;98928.97;5011270;28;20034;-77
2022/09/30 01:34:13;;;;;;;23.92;17.48;;;;;;;6.64;100.00;98940.09;5012638;28;20033;-77
2022/09/30 01:36:42;;;;;;;22.60;18.95;;;;;;;6.66;100.00;98940.03;5012352;28;20416;-77
2022/09/30 01:39:47;;;;;;;32.85;22.92;;;;;;;6.63;100.00;98929.81;5012512;28;20034;-77
2022/09/30 01:42:33;;;;;;;32.38;23.13;;;;;;;6.57;100.00;98927.47;5012500;28;20113;-77
2022/09/30 01:45:02;;;;;;;34.20;24.60;;;;;;;6.62;100.00;98938.50;5012463;28;20030;-77
2022/09/30 01:47:47;;;;;;;38.85;26.35;;;;;;;6.54;100.00;98930.19;5012263;28;20116;-77
2022/09/30 01:50:44;;;;;;;40.55;27.17;;;;;;;6.58;100.00;98934.34;5012474;28;20065;-77
2022/09/30 01:53:15;;;;;;;40.53;26.95;;;;;;;6.48;100.00;98913.16;4954237;29;20387;-77
2022/09/30 01:55:58;;;;;;;37.67;26.98;;;;;;;6.54;100.00;98931.03;4953612;29;20046;-77
2022/09/30 01:58:34;;;;;;;50.45;32.33;;;;;;;6.53;100.00;98925.91;4953736;29;20435;-77
2022/09/30 02:01:06;;;;;;;67.13;37.67;;;;;;;6.46;100.00;98902.91;4953790;29;20027;-77
2022/09/30 02:03:46;;;;;;;73.20;38.00;;;;;;;6.50;100.00;98919.97;5011284;28;20033;-77
2022/09/30 02:06:17;;;;;;;94.32;45.50;;;;;;;6.53;100.00;98918.16;5031410;28;20049;-77
2022/09/30 02:08:48;;;;;;;103.43;50.72;;;;;;;6.54;100.00;98923.28;5031598;28;20121;-77
2022/09/30 02:11:26;;;;;;;107.63;52.20;;;;;;;6.56;100.00;98926.63;5031642;28;20037;-77
2022/09/30 02:14:03;;;;;;;91.82;45.30;;;;;;;6.53;100.00;98907.78;5031478;28;20418;-77
2022/09/30 02:16:38;;;;;;;84.20;41.67;;;;;;;6.62;100.00;98922.97;5031537;28;20041;-77
2022/09/30 02:19:44;;;;;;;71.05;37.30;;;;;;;6.63;100.00;98928.06;5031598;28;20025;-77
2022/09/30 02:22:19;;;;;;;65.95;34.80;;;;;;;6.57;100.00;98917.94;5011497;28;20080;-76
2022/09/30 02:24:49;;;;;;;57.13;33.83;;;;;;;6.64;100.00;98928.91;5011435;28;20026;-77
2022/09/30 02:27:20;;;;;;;36.05;26.58;;;;;;;6.63;100.00;98924.63;5011539;28;20053;-77
2022/09/30 02:29:54;;;;;;;42.00;27.45;;;;;;;6.57;100.00;98910.19;5020331;28;20074;-77
2022/09/30 02:32:25;;;;;;;38.33;26.27;;;;;;;6.65;100.00;98921.06;5031263;28;20190;-77
2022/09/30 02:35:00;;;;;;;34.33;25.20;;;;;;;6.61;100.00;98916.91;5031027;28;20025;-77
2022/09/30 02:37:33;;;;;;;38.80;24.42;;;;;;;6.64;100.00;98923.72;5031144;28;20033;-77
2022/09/30 02:40:05;;;;;;;28.30;21.30;;;;;;;6.63;100.00;98922.88;5030885;28;20029;-77
2022/09/30 02:42:31;;;;;;;30.08;21.60;;;;;;;6.61;100.00;98922.09;5030966;28;20021;-77
2022/09/30 02:45:09;;;;;;;27.70;21.45;;;;;;;6.62;100.00;98925.56;5030834;28;20067;-77
2022/09/30 02:47:47;;;;;;;32.00;21.60;;;;;;;6.60;100.00;98930.75;5031062;28;20057;-76
2022/09/30 02:50:28;;;;;;;29.63;22.13;;;;;;;6.62;100.00;98928.97;5030974;28;20029;-77
2022/09/30 02:53:17;;;;;;;28.35;21.38;;;;;;;6.67;100.00;98929.63;5030694;28;20129;-77
2022/09/30 02:56:07;;;;;;;28.55;21.45;;;;;;;6.73;100.00;98936.25;5030591;28;20164;-77
2022/09/30 02:58:38;;;;;;;26.95;20.67;;;;;;;6.79;100.00;98936.03;5052091;28;20047;-77
2022/09/30 03:01:09;;;;;;;30.27;21.10;;;;;;;6.83;100.00;98937.56;5093542;28;20039;-77
2022/09/30 03:03:40;;;;;;;25.30;20.05;;;;;;;6.79;100.00;98925.66;5093497;28;20367;-77
2022/09/30 03:06:06;;;;;;;24.48;20.23;;;;;;;6.86;100.00;98931.41;5093010;28;20468;-77
2022/09/30 03:08:32;;;;;;;29.73;21.15;;;;;;;6.94;100.00;98950.88;5093046;28;20370;-77
2022/09/30 03:10:57;;;;;;;26.92;19.98;;;;;;;6.94;100.00;98942.28;5093048;28;20020;-77
2022/09/30 03:13:57;;;;;;;25.50;20.30;;;;;;;7.06;100.00;98954.69;5093261;28;20023;-77
2022/09/30 03:16:47;;;;;;;24.90;20.27;;;;;;;7.10;100.00;98965.75;5093113;28;20030;-77
2022/09/30 03:19:26;;;;;;;27.60;21.88;;;;;;;7.13;100.00;98956.13;5092911;28;20028;-77
2022/09/30 03:22:10;;;;;;;25.95;20.77;;;;;;;7.18;100.00;98951.56;5092781;28;20020;-77
2022/09/30 03:24:51;;;;;;;26.50;19.98;;;;;;;7.24;100.00;98953.03;5092939;28;20107;-77
2022/09/30 03:27:22;;;;;;;28.63;21.75;;;;;;;7.28;100.00;98954.59;5092684;28;20031;-77
2022/09/30 03:29:56;;;;;;;25.15;22.10;;;;;;;7.31;100.00;98944.09;5092660;28;20482;-77
2022/09/30 03:32:40;;;;;;;26.98;21.30;;;;;;;7.36;100.00;98943.91;5092685;28;20028;-77
2022/09/30 03:35:24;;;;;;;33.38;22.27;;;;;;;7.41;100.00;98947.09;5092695;28;20467;-77
2022/09/30 03:37:55;;;;;;;25.35;20.00;;;;;;;7.46;100.00;98952.94;5092402;28;20030;-77
2022/09/30 03:40:27;;;;;;;28.80;21.70;;;;;;;7.48;100.00;98954.53;5092767;28;20049;-77
2022/09/30 03:43:31;;;;;;;28.42;22.05;;;;;;;7.50;100.00;98950.16;5092451;28;20023;-77
2022/09/30 03:46:12;;;;;;;25.35;20.48;;;;;;;7.53;100.00;98956.94;5010166;28;20533;-76
2022/09/30 03:48:39;;;;;;;25.48;19.83;;;;;;;7.50;100.00;98950.16;5010213;28;20029;-77
2022/09/30 03:51:06;;;;;;;28.30;22.58;;;;;;;7.46;100.00;98940.84;5009919;28;20041;-76
2022/09/30 03:53:37;;;;;;;28.52;22.45;;;;;;;7.59;100.00;98963.59;5009658;28;20084;-77
2022/09/30 03:56:02;;;;;;;29.90;22.73;;;;;;;7.54;100.00;98963.78;5009799;28;20061;-77
2022/09/30 03:58:28;;;;;;;32.25;24.20;;;;;;;7.56;100.00;98954.22;5010015;28;20517;-77
2022/09/30 04:00:55;;;;;;;34.50;25.05;;;;;;;7.65;100.00;98960.72;5009710;28;20117;-77
2022/09/30 04:03:22;;;;;;;34.15;26.02;;;;;;;7.53;100.00;98943.97;5009904;28;20038;-77
2022/09/30 04:05:48;;;;;;;35.95;26.60;;;;;;;7.65;100.00;98963.31;5009466;28;20423;-77
2022/09/30 04:08:13;;;;;;;33.20;23.33;;;;;;;7.63;100.00;98968.56;5009852;28;20033;-77
2022/09/30 04:10:41;;;;;;;31.15;25.80;;;;;;;7.58;100.00;98964.50;5009877;28;20076;-76
2022/09/30 04:13:07;;;;;;;31.58;24.73;;;;;;;7.52;100.00;98964.78;5009562;28;20030;-77
2022/09/30 04:15:33;;;;;;;31.10;24.30;;;;;;;7.61;100.00;98979.91;5009890;28;20165;-77
2022/09/30 04:17:59;;;;;;;32.25;26.40;;;;;;;7.55;100.00;98960.31;5009742;28;20104;-77
2022/09/30 04:20:24;;;;;;;34.83;26.55;;;;;;;7.66;100.00;98972.75;5010223;28;20517;-77
2022/09/30 04:22:50;;;;;;;31.50;24.38;;;;;;;7.67;100.00;98961.50;5054251;28;20138;-77
2022/09/30 04:25:15;;;;;;;34.55;25.10;;;;;;;7.63;100.00;98955.63;5092068;28;20028;-77
2022/09/30 04:27:40;;;;;;;30.27;23.77;;;;;;;7.63;100.00;98947.84;5091862;28;20012;-77
2022/09/30 04:30:06;;;;;;;30.63;23.27;;;;;;;7.66;100.00;98967.56;5091962;28;20520;-77
2022/09/30 04:32:32;;;;;;;27.65;22.88;;;;;;;7.56;100.00;98955.97;5091909;28;20024;-77
2022/09/30 04:34:57;;;;;;;29.13;22.90;;;;;;;7.67;100.00;98977.91;5091923;28;20026;-77
2022/09/30 04:37:23;;;;;;;32.17;24.25;;;;;;;7.68;100.00;98981.31;5092052;28;20048;-77
2022/09/30 04:39:49;;;;;;;28.02;21.70;;;;;;;7.67;100.00;98979.66;5091717;28;20562;-77
2022/09/30 04:42:15;;;;;;;29.10;22.42;;;;;;;7.68;100.00;98978.72;5091716;28;20020;-77
2022/09/30 04:44:40;;;;;;;30.10;22.05;;;;;;;7.72;100.00;98985.47;5092061;28;20184;-77
2022/09/30 04:47:06;;;;;;;27.88;23.00;;;;;;;7.75;100.00;98993.06;5091917;28;20360;-77
2022/09/30 04:49:31;;;;;;;28.92;22.02;;;;;;;7.72;100.00;98981.09;5091934;28;20035;-77
2022/09/30 04:51:56;;;;;;;24.58;21.30;;;;;;;7.74;100.00;98981.03;5091558;28;20012;-77
2022/09/30 04:54:23;;;;;;;27.55;22.25;;;;;;;7.82;100.00;98991.06;5091828;28;20052;-77
2022/09/30 04:56:48;;;;;;;29.40;23.02;;;;;;;7.83;100.00;99000.50;5091470;28;20024;-77
2022/09/30 04:59:13;;;;;;;27.95;22.67;;;;;;;7.86;100.00;99003.81;5091678;28;20028;-77
2022/09/30 05:01:41;;;;;;;27.45;22.50;;;;;;;7.81;100.00;98998.00;5091765;28;20012;-77
2022/09/30 05:04:07;;;;;;;35.42;23.45;;;;;;;7.89;100.00;99010.63;5091542;28;20020;-77
2022/09/30 05:06:32;;;;;;;29.15;23.38;;;;;;;7.90;100.00;99012.28;5094420;28;20118;-78
2022/09/30 05:08:58;;;;;;;31.05;24.73;;;;;;;7.92;100.00;99016.50;5095241;28;20095;-77
2022/09/30 05:11:24;;;;;;;30.30;24.05;;;;;;;7.93;100.00;99006.97;5095367;28;20016;-77
2022/09/30 05:13:49;;;;;;;33.15;23.25;;;;;;;7.95;100.00;99012.91;5095384;28;20027;-77
2022/09/30 05:16:16;;;;;;;32.20;23.73;;;;;;;7.95;100.00;99005.97;5095482;28;20020;-77
2022/09/30 05:18:44;;;;;;;28.60;22.05;;;;;;;8.10;100.00;99035.56;5095421;28;20406;-77
2022/09/30 05:21:11;;;;;;;32.03;23.45;;;;;;;8.06;100.00;99026.22;5095058;28;20020;-77
2022/09/30 05:23:37;;;;;;;29.90;23.33;;;;;;;8.15;100.00;99037.94;5095197;28;20077;-77
2022/09/30 05:26:03;;;;;;;28.95;23.52;;;;;;;8.14;100.00;99038.84;5094926;28;20455;-77
2022/09/30 05:28:30;;;;;;;33.03;23.88;;;;;;;8.17;100.00;99041.28;5095340;28;20031;-77
2022/09/30 05:31:01;;;;;;;31.77;25.27;;;;;;;8.24;100.00;99046.13;5095164;28;20080;-77
2022/09/30 05:33:30;;;;;;;32.35;25.67;;;;;;;8.36;100.00;99057.69;5095169;28;20031;-77
2022/09/30 05:36:01;;;;;;;31.60;25.13;;;;;;;8.34;100.00;99050.88;5094772;28;20028;-77
2022/09/30 05:38:26;;;;;;;37.47;25.63;;;;;;;8.43;100.00;99061.72;5094848;28;20054;-78
2022/09/30 05:40:53;;;;;;;36.40;26.92;;;;;;;8.42;100.00;99047.03;5094850;28;20491;-78
2022/09/30 05:43:18;;;;;;;36.70;26.98;;;;;;;8.51;100.00;99053.53;5094929;28;20019;-78
2022/09/30 05:45:52;;;;;;;29.55;24.23;;;;;;;8.60;100.00;99058.31;5094914;28;20097;-77
2022/09/30 05:48:17;;;;;;;35.35;25.42;;;;;;;8.70;100.00;99053.50;5094667;28;20355;-77
2022/09/30 05:50:42;;;;;;;34.88;26.48;;;;;;;8.90;100.00;99066.38;5094705;28;20027;-78
2022/09/30 05:53:08;;;;;;;33.60;27.25;;;;;;;8.98;100.00;99063.41;5094311;28;20024;-77
2022/09/30 05:55:33;;;;;;;33.83;27.55;;;;;;;9.06;100.00;99063.00;5094802;28;20115;-78
2022/09/30 05:57:58;;;;;;;33.22;26.83;;;;;;;9.04;100.00;99064.84;5094550;28;20017;-78
2022/09/30 06:00:24;;;;;;;35.67;27.63;;;;;;;9.03;100.00;99070.97;5094637;28;20031;-77
2022/09/30 06:02:50;;;;;;;35.10;27.33;;;;;;;9.00;100.00;99066.75;5094239;28;20054;-77
2022/09/30 06:05:16;;;;;;;32.28;26.23;;;;;;;9.07;100.00;99080.28;5094342;28;20123;-78
2022/09/30 06:07:41;;;;;;;32.25;24.52;;;;;;;9.09;100.00;99084.47;5094215;28;20103;-77
2022/09/30 06:10:11;;;;;;;35.45;25.88;;;;;;;8.99;100.00;99075.47;5094377;28;20051;-77
2022/09/30 06:12:37;;;;;;;29.77;25.25;;;;;;;9.03;100.00;99077.00;5094413;28;20062;-77
2022/09/30 06:15:03;;;;;;;30.83;25.40;;;;;;;9.04;100.00;99080.44;5094159;28;20026;-78
2022/09/30 06:17:28;;;;;;;36.47;26.02;;;;;;;9.01;100.00;99076.22;5093765;28;20012;-78
2022/09/30 06:19:53;;;;;;;32.42;25.05;;;;;;;9.02;100.00;99079.66;5093935;28;20024;-77
2022/09/30 06:22:19;;;;;;;34.13;25.70;;;;;;;9.03;100.00;99084.78;5094032;28;20404;-78
2022/09/30 06:24:45;;;;;;;34.97;27.17;;;;;;;9.09;100.00;99094.84;5094341;28;20031;-78
2022/09/30 06:27:11;;;;;;;33.95;28.15;;;;;;;9.09;100.00;99094.84;5093798;28;20050;-77
2022/09/30 06:29:37;;;;;;;38.80;30.75;;;;;;;9.10;100.00;99090.50;5094044;28;20024;-78
2022/09/30 06:32:03;;;;;;;38.22;28.40;;;;;;;9.13;100.00;99101.59;5093660;28;20024;-77
2022/09/30 06:34:28;;;;;;;35.40;26.77;;;;;;;9.13;100.00;99099.00;5093864;28;20270;-78
2022/09/30 06:36:53;;;;;;;35.88;28.17;;;;;;;9.14;100.00;99098.09;5092131;28;20024;-78
2022/09/30 06:39:19;;;;;;;34.05;26.52;;;;;;;9.14;100.00;99090.31;5093963;28;20098;-77
2022/09/30 06:41:45;;;;;;;31.30;24.98;;;;;;;9.15;100.00;99088.53;5093918;28;20016;-78
2022/09/30 06:44:11;;;;;;;30.50;24.60;;;;;;;9.20;100.00;99097.78;5093652;28;20023;-77
2022/09/30 06:46:36;;;;;;;33.00;24.88;;;;;;;9.21;100.00;99106.41;5093727;28;20131;-77
2022/09/30 06:49:03;;;;;;;34.92;26.33;;;;;;;9.18;100.00;99093.56;5093423;28;20016;-78
2022/09/30 06:51:32;;;;;;;33.92;26.65;;;;;;;9.27;100.00;99115.66;5093498;28;20519;-78
2022/09/30 06:53:58;;;;;;;34.00;28.25;;;;;;;9.20;100.00;99105.56;5093426;28;20023;-78
2022/09/30 06:56:24;;;;;;;37.15;29.23;;;;;;;9.29;100.00;99122.47;5093374;28;20032;-77
2022/09/30 06:58:49;;;;;;;34.85;27.05;;;;;;;9.31;100.00;99125.81;5093384;28;20016;-77
2022/09/30 07:01:14;;;;;;;32.58;27.73;;;;;;;9.28;100.00;99119.94;5093120;28;20022;-77
2022/09/30 07:03:43;;;;;;;31.65;25.75;;;;;;;9.35;100.00;99129.94;5093286;28;20020;-77
2022/09/30 07:06:09;;;;;;;34.97;28.20;;;;;;;9.37;100.00;99128.13;5092899;28;20040;-78
2022/09/30 07:08:37;;;;;;;36.17;26.38;;;;;;;9.41;100.00;99136.59;5093332;28;20107;-77
2022/09/30 07:11:13;;;;;;;34.58;27.85;;;;;;;9.43;100.00;99139.97;5092993;28;20019;-78
2022/09/30 07:13:41;;;;;;;36.30;29.00;;;;;;;9.42;100.00;99157.31;5093132;28;20016;-78
2022/09/30 07:16:07;;;;;;;34.25;27.00;;;;;;;9.41;100.00;99153.03;5092853;28;20027;-77
2022/09/30 07:18:32;;;;;;;37.72;28.38;;;;;;;9.40;100.00;99146.16;5092960;28;20016;-77
2022/09/30 07:20:58;;;;;;;43.13;29.10;;;;;;;9.45;100.00;99148.53;5092920;28;20020;-77
2022/09/30 07:23:26;;;;;;;32.08;26.42;;;;;;;9.53;100.00;99161.16;5093264;28;20015;-78
2022/09/30 07:25:55;;;;;;;34.17;24.83;;;;;;;9.57;100.00;99162.69;5089956;28;20521;-77
2022/09/30 07:28:30;;;;;;;39.63;30.67;;;;;;;9.59;100.00;99166.88;5081062;28;20067;-77
2022/09/30 07:30:57;;;;;;;36.40;28.27;;;;;;;9.59;100.00;99163.44;5077501;28;20032;-78
2022/09/30 07:33:24;;;;;;;40.10;29.80;;;;;;;9.53;100.00;99163.75;5074968;28;20027;-78
2022/09/30 07:35:54;;;;;;;36.30;29.08;;;;;;;9.59;100.00;99172.06;5092541;28;20024;-78
2022/09/30 07:38:24;;;;;;;35.58;29.65;;;;;;;9.66;100.00;99172.63;5091471;28;20367;-77
2022/09/30 07:40:59;;;;;;;37.20;28.83;;;;;;;9.64;100.00;99162.28;5092515;28;20020;-77
2022/09/30 07:43:33;;;;;;;37.22;27.98;;;;;;;9.72;100.00;99172.28;5092159;28;20020;-78
2022/09/30 07:46:12;;;;;;;35.03;28.55;;;;;;;9.68;100.00;99163.81;5081145;28;20021;-78
2022/09/30 07:48:43;;;;;;;33.25;27.67;;;;;;;9.73;100.00;99179.16;5074427;28;20344;-78
2022/09/30 07:51:19;;;;;;;33.97;26.92;;;;;;;9.80;100.00;99171.91;5071946;28;20052;-78
2022/09/30 07:53:48;;;;;;;33.53;27.38;;;;;;;9.84;100.00;99178.63;5082890;28;20146;-78
2022/09/30 07:56:14;;;;;;;34.10;27.83;;;;;;;9.97;100.00;99192.69;5092196;28;20042;-78
2022/09/30 07:58:39;;;;;;;41.13;29.42;;;;;;;10.01;100.00;99194.22;5092537;28;20016;-78
2022/09/30 08:01:05;;;;;;;35.25;27.95;;;;;;;10.10;100.00;99187.69;5092259;28;20478;-77
2022/09/30 08:03:33;;;;;;;35.90;28.50;;;;;;;10.23;100.00;99189.56;5092415;28;20037;-78
2022/09/30 08:06:16;;;;;;;38.40;28.33;;;;;;;10.30;100.00;99199.72;5092086;28;20123;-78
2022/09/30 08:08:43;;;;;;;37.72;29.75;;;;;;;10.30;100.00;99199.72;5092095;28;20020;-77
2022/09/30 08:11:10;;;;;;;38.85;29.83;;;;;;;10.39;100.00;99204.44;5092160;28;20043;-77
2022/09/30 08:13:36;;;;;;;33.20;26.95;;;;;;;10.41;100.00;99205.19;5092359;28;20478;-78
2022/09/30 08:16:03;;;;;;;33.88;28.08;;;;;;;10.42;100.00;99189.50;5091972;28;20106;-78
2022/09/30 08:18:28;;;;;;;34.58;27.33;;;;;;;10.56;100.00;99200.91;5092151;28;20098;-78
2022/09/30 08:20:54;;;;;;;30.42;25.42;;;;;;;10.66;100.00;99209.91;5092031;28;20060;-78
2022/09/30 08:23:19;;;;;;;39.25;31.50;;;;;;;10.67;100.00;99190.78;5091755;28;20035;-78
2022/09/30 08:25:45;;;;;;;35.55;28.50;;;;;;;10.74;100.00;99200.78;5092239;28;20020;-78
2022/09/30 08:28:10;;;;;;;36.42;27.30;;;;;;;10.77;100.00;99191.09;5091826;28;20022;-78
2022/09/30 08:30:37;;;;;;;32.80;26.45;;;;;;;10.85;100.00;99199.34;5092073;28;20348;-78
2022/09/30 08:33:03;;;;;;;33.63;26.25;;;;;;;10.87;100.00;99200.97;5091785;28;20028;-78
2022/09/30 08:35:28;;;;;;;38.85;32.35;;;;;;;10.92;100.00;99204.16;5091885;28;20039;-78
2022/09/30 08:37:54;;;;;;;32.28;26.30;;;;;;;10.96;100.00;99210.03;5092138;28;20106;-77
2022/09/30 08:40:26;;;;;;;33.15;26.25;;;;;;;11.09;100.00;99198.00;5094675;28;20015;-78
2022/09/30 08:43:00;;;;;;;31.00;26.13;;;;;;;11.38;100.00;99213.78;5096123;28;20027;-78
2022/09/30 08:45:38;;;;;;;31.52;25.73;;;;;;;11.44;100.00;99208.19;5096229;28;20032;-77
2022/09/30 08:48:21;;;;;;;32.78;25.65;;;;;;;11.49;100.00;99204.38;5095575;28;20020;-78
2022/09/30 08:51:04;;;;;;;35.08;27.17;;;;;;;11.69;100.00;99220.66;5096061;28;20051;-77
2022/09/30 08:53:42;;;;;;;33.58;26.35;;;;;;;11.78;100.00;99214.06;5095805;28;20106;-77
2022/09/30 08:56:16;;;;;;;31.63;25.85;;;;;;;11.82;100.00;99226.84;5095615;28;20024;-78
2022/09/30 08:58:45;;;;;;;32.60;24.02;;;;;;;11.88;100.00;99207.41;5095917;28;20028;-78
2022/09/30 09:01:15;;;;;;;31.55;24.73;;;;;;;12.00;100.00;99217.13;5095238;28;20058;-78
2022/09/30 09:03:41;;;;;;;32.17;24.92;;;;;;;11.97;100.00;99215.53;5095778;28;20102;-78
2022/09/30 09:06:49;;;;;;;32.00;24.73;;;;;;;12.11;100.00;99226.94;5095397;28;20123;-78
2022/09/30 09:09:31;;;;;;;28.67;22.83;;;;;;;12.37;100.00;99225.38;5012995;28;20041;-78
2022/09/30 09:11:56;;;;;;;30.10;24.85;;;;;;;12.24;99.17;99220.03;5013248;28;20034;-78
2022/09/30 09:14:38;;;;;;;26.80;23.02;;;;;;;12.24;99.28;99225.25;5012752;28;20034;-78
2022/09/30 09:17:18;;;;;;;31.60;24.88;;;;;;;12.22;100.00;99227.97;5012840;28;20482;-78
2022/09/30 09:20:07;;;;;;;32.72;25.15;;;;;;;12.27;99.75;99219.88;5012945;28;20061;-78
2022/09/30 09:22:34;;;;;;;28.60;24.38;;;;;;;12.32;99.70;99220.41;5012979;28;20038;-78
2022/09/30 09:25:01;;;;;;;30.33;24.48;;;;;;;12.48;99.30;99222.94;5012716;28;20453;-78
2022/09/30 09:27:41;;;;;;;35.00;26.58;;;;;;;12.52;98.83;99228.81;5016260;28;20032;-78
2022/09/30 09:30:13;;;;;;;32.55;24.85;;;;;;;12.51;99.26;99225.34;5028214;28;20542;-78
2022/09/30 09:32:39;;;;;;;36.38;29.10;;;;;;;12.52;99.46;99227.06;5012637;28;20470;-78
2022/09/30 09:35:15;;;;;;;38.15;28.50;;;;;;;12.49;99.28;99229.84;5016867;28;20032;-78
2022/09/30 09:41:09;;;;;;;31.80;26.45;;;;;;;12.43;100.00;99249.34;5032342;28;20424;-78
2022/09/30 09:43:47;;;;;;;31.77;25.83;;;;;;;12.42;100.00;99247.66;5027890;28;20527;-77
2022/09/30 09:46:12;;;;;;;28.85;25.00;;;;;;;12.52;100.00;99247.13;5079180;28;20426;-78
2022/09/30 09:48:38;;;;;;;34.30;27.40;;;;;;;12.49;100.00;99238.50;5094549;28;20039;-78
2022/09/30 09:51:23;;;;;;;28.52;23.67;;;;;;;12.80;99.38;99254.06;5093854;28;20027;-78
2022/09/30 09:53:51;;;;;;;25.90;21.27;;;;;;;12.91;97.55;99243.81;5095014;28;20024;-78
2022/09/30 09:56:20;;;;;;;23.00;19.10;;;;;;;12.93;95.27;99250.59;5094401;28;20027;-78
2022/09/30 09:59:05;;;;;;;24.73;18.40;;;;;;;13.03;95.19;99255.28;5094589;28;20035;-78
2022/09/30 10:01:32;;;;;;;23.05;17.30;;;;;;;12.98;94.07;99250.34;5106200;28;20020;-78
2022/09/30 10:04:10;;;;;;;18.00;15.82;;;;;;;13.06;94.05;99249.81;5114966;28;20466;-78
2022/09/30 10:06:50;;;;;;;17.50;15.30;;;;;;;13.18;94.42;99254.28;5114482;28;20047;-78
2022/09/30 10:09:24;;;;;;;23.75;18.33;;;;;;;12.99;92.50;99262.47;5113084;28;20024;-78
2022/09/30 10:11:51;;;;;;;18.70;15.32;;;;;;;13.02;93.52;99251.81;5114860;28;20016;-78
2022/09/30 10:14:20;;;;;;;16.63;14.88;;;;;;;13.05;92.70;99256.84;5114597;28;20019;-78
2022/09/30 10:16:47;;;;;;;20.90;17.17;;;;;;;13.02;92.63;99254.44;5114660;28;20157;-78
2022/09/30 10:19:26;;;;;;;16.15;14.23;;;;;;;13.19;92.99;99248.13;5114401;28;20072;-78
2022/09/30 10:22:07;;;;;;;18.02;16.13;;;;;;;13.43;92.71;99257.03;5114431;28;20028;-78
2022/09/30 10:24:33;;;;;;;22.27;17.10;;;;;;;13.55;92.02;99249.34;5114579;28;20019;-78
2022/09/30 10:26:59;;;;;;;23.45;16.35;;;;;;;13.36;91.36;99234.84;5114416;28;20444;-78
2022/09/30 10:29:34;;;;;;;18.10;15.80;;;;;;;13.34;91.17;99248.94;5114328;28;20049;-78
2022/09/30 10:32:05;;;;;;;18.13;15.60;;;;;;;13.22;92.04;99245.31;5114349;28;20046;-78
2022/09/30 10:34:37;;;;;;;18.50;16.55;;;;;;;13.19;92.14;99256.81;5111949;28;20066;-78
2022/09/30 10:37:15;;;;;;;18.30;14.15;;;;;;;13.19;91.10;99248.13;5093934;28;20047;-78
2022/09/30 10:39:57;;;;;;;17.35;14.43;;;;;;;13.17;92.09;99250.00;5092502;28;20038;-78
2022/09/30 10:42:26;;;;;;;19.13;15.30;;;;;;;13.17;92.23;99261.28;5093559;28;20107;-78
2022/09/30 10:45:28;;;;;;;18.25;14.85;;;;;;;13.31;91.66;99259.59;5093533;28;20031;-78
2022/09/30 10:47:55;;;;;;;17.55;15.20;;;;;;;13.56;91.69;99254.47;5030952;28;20499;-78
2022/09/30 10:50:26;;;;;;;18.20;15.55;;;;;;;13.60;90.71;99244.63;5030736;28;20029;-78
2022/09/30 10:52:56;;;;;;;37.25;32.00;;;;;;;13.76;90.70;99254.94;5030915;28;20045;-78
2022/09/30 10:55:21;;;;;;;30.70;26.00;;;;;;;13.91;90.82;99259.19;5030682;28;20385;-78
2022/09/30 10:57:50;;;;;;;22.45;17.73;;;;;;;14.04;90.89;99248.72;5030719;28;20038;-78
2022/09/30 11:00:20;;;;;;;17.05;14.07;;;;;;;14.14;90.58;99247.16;5030606;28;20468;-78
2022/09/30 11:03:07;;;;;;;16.90;13.20;;;;;;;14.31;90.05;99257.31;5030593;28;20538;-78
2022/09/30 11:05:37;;;;;;;15.32;12.80;;;;;;;14.29;87.08;99247.91;5030440;28;20128;-78
2022/09/30 11:08:37;;;;;;;12.20;10.80;;;;;;;14.51;87.64;99249.91;5030434;28;20477;-78
2022/09/30 11:11:08;;;;;;;;;;;;;;;14.28;84.72;99254.91;5031039;28;20358;-78
2022/09/30 11:13:34;;;;;;;;;;;;;;;14.28;86.06;99249.66;5030971;28;19905;-78
2022/09/30 11:16:18;;;;;;;11.82;10.15;;;;;;;14.25;86.21;99243.81;5030346;28;19991;-77
2022/09/30 11:18:49;;;;;;;13.18;9.52;;;;;;;14.35;86.11;99255.31;5029971;28;20044;-77
2022/09/30 11:21:25;;;;;;;;;;;;;;;14.37;84.37;99259.53;5030601;28;20025;-77
2022/09/30 11:24:15;;;;;;;11.35;9.07;;;;;;;14.26;84.40;99250.72;5070861;28;19911;-78
2022/09/30 11:26:58;;;;;;;12.10;10.07;;;;;;;14.21;84.69;99253.66;5093034;28;20039;-77
2022/09/30 11:29:47;;;;;;;13.02;10.57;;;;;;;14.21;85.78;99267.59;5092781;28;20023;-77
2022/09/30 11:32:32;;;;;;;12.93;9.10;;;;;;;14.01;84.71;99267.25;5092162;28;20046;-78
2022/09/30 11:35:35;;;;;;;11.18;8.60;;;;;;;13.98;85.53;99263.03;5098484;28;20020;-78
2022/09/30 11:38:03;;;;;;;18.85;14.02;;;;;;;14.08;85.81;99264.13;5113123;28;20455;-78
2022/09/30 11:40:29;;;;;;;13.38;10.85;;;;;;;14.14;86.19;99261.06;5112842;28;20024;-77
2022/09/30 11:43:06;;;;;;;14.32;11.27;;;;;;;14.24;86.66;99256.03;5112991;28;20032;-78